createdAt,value
2023-04-21T00:00:39.145Z,33.30
2023-04-21T00:05:41.097Z,33.50
2023-04-21T00:10:43.304Z,33.51
2023-04-21T00:15:45.317Z,33.61
2023-04-21T00:20:47.198Z,33.49
2023-04-21T00:25:49.245Z,33.32
2023-04-21T00:30:51.132Z,33.48
2023-04-21T00:35:53.019Z,33.50
2023-04-21T00:40:54.997Z,33.59
2023-04-21T00:45:56.930Z,33.70
2023-04-21T00:50:58.859Z,33.49
2023-04-21T00:56:00.892Z,34.18
2023-04-21T01:01:02.916Z,33.88
2023-04-21T01:06:05.109Z,34.05
2023-04-21T01:11:11.290Z,33.67
2023-04-21T01:16:19.275Z,33.75
2023-04-21T01:21:21.316Z,33.85
2023-04-21T01:26:23.366Z,34.13
2023-04-21T01:31:25.474Z,34.51
2023-04-21T01:36:27.559Z,34.27
2023-04-21T01:41:29.410Z,34.78
2023-04-21T01:46:31.620Z,34.90
2023-04-21T01:51:33.551Z,34.80
2023-04-21T01:56:35.494Z,34.71
2023-04-21T02:01:37.416Z,34.60
2023-04-21T02:06:39.456Z,35.34
2023-04-21T02:11:41.374Z,35.47
2023-04-21T02:16:43.531Z,35.55
2023-04-21T02:21:45.499Z,35.49
2023-04-21T02:26:47.420Z,35.70
2023-04-21T02:32:00.615Z,35.95
2023-04-21T02:37:05.182Z,35.40
2023-04-21T02:42:07.038Z,35.78
2023-04-21T02:47:09.024Z,36.21
2023-04-21T02:52:11.153Z,36.26
2023-04-21T02:57:12.991Z,35.37
2023-04-21T03:02:15.224Z,32.78
2023-04-21T03:07:17.739Z,31.10
2023-04-21T03:12:19.680Z,29.28
2023-04-21T03:17:21.591Z,27.64
2023-04-21T03:22:23.560Z,25.87
2023-04-21T03:27:25.679Z,25.60
2023-04-21T03:32:27.860Z,23.38
2023-04-21T03:37:29.865Z,22.29
2023-04-21T03:42:32.110Z,22.00
2023-04-21T03:47:33.919Z,21.39
2023-04-21T03:52:35.823Z,20.37
2023-04-21T03:57:41.360Z,19.57
2023-04-21T04:02:43.326Z,18.78
2023-04-21T04:07:45.426Z,17.35
2023-04-21T04:12:47.399Z,17.30
2023-04-21T04:17:49.467Z,17.23
2023-04-21T04:22:51.422Z,18.85
2023-04-21T04:27:53.444Z,21.86
2023-04-21T04:32:55.268Z,23.38
2023-04-21T04:37:57.121Z,24.94
2023-04-21T04:42:59.141Z,25.92
2023-04-21T04:48:01.083Z,25.95
2023-04-21T04:53:02.967Z,27.38
2023-04-21T04:58:06.017Z,26.82
2023-04-21T05:03:08.017Z,27.17
2023-04-21T05:08:10.033Z,27.34
2023-04-21T05:13:11.947Z,27.39
2023-04-21T05:18:13.866Z,27.35
2023-04-21T05:23:15.733Z,27.17
2023-04-21T05:28:17.578Z,21.17
2023-04-21T05:33:19.508Z,17.73
2023-04-21T05:38:21.448Z,16.35
2023-04-21T05:43:23.367Z,14.05
2023-04-21T05:48:25.309Z,12.63
2023-04-21T05:53:27.218Z,13.00
2023-04-21T05:58:29.180Z,11.80
2023-04-21T06:03:31.799Z,11.07
2023-04-21T06:08:33.785Z,10.63
2023-04-21T06:13:38.094Z,10.81
2023-04-21T06:18:43.712Z,10.58
2023-04-21T06:23:45.615Z,10.53
2023-04-21T06:28:47.494Z,10.73
2023-04-21T06:33:49.371Z,11.25
2023-04-21T06:38:51.385Z,11.45
2023-04-21T06:43:53.271Z,10.68
2023-04-21T06:48:55.137Z,10.67
2023-04-21T06:53:56.984Z,10.55
2023-04-21T06:58:58.774Z,10.55
2023-04-21T07:04:00.799Z,9.81
2023-04-21T07:09:02.786Z,10.68
2023-04-21T07:14:04.740Z,9.74
2023-04-21T07:19:06.669Z,9.24
2023-04-21T07:24:08.881Z,9.22
2023-04-21T07:29:10.723Z,8.91
2023-04-21T07:34:12.569Z,7.85
2023-04-21T07:39:14.431Z,8.05
2023-04-21T07:44:16.331Z,7.89
2023-04-21T07:49:18.458Z,8.86
2023-04-21T07:54:20.521Z,9.89
2023-04-21T07:59:22.429Z,13.41
2023-04-21T08:04:24.392Z,16.37
2023-04-21T08:09:26.924Z,18.04
2023-04-21T08:14:28.852Z,19.65
2023-04-21T08:19:30.870Z,21.04
2023-04-21T08:24:32.772Z,21.10
2023-04-21T08:29:34.724Z,21.79
2023-04-21T08:34:36.641Z,21.99
2023-04-21T08:39:38.468Z,22.00
2023-04-21T08:44:40.355Z,22.17
2023-04-21T08:49:42.635Z,22.15
2023-04-21T08:54:44.330Z,24.31
2023-04-21T08:59:46.148Z,23.92
2023-04-21T09:04:49.471Z,24.61
2023-04-21T09:09:52.739Z,24.84
2023-04-21T09:14:54.663Z,24.74
2023-04-21T09:19:56.475Z,24.85
2023-04-21T09:24:59.055Z,24.72
2023-04-21T09:30:04.770Z,24.82
2023-04-21T09:35:10.869Z,25.93
2023-04-21T09:40:17.367Z,26.17
2023-04-21T09:50:44.757Z,25.04
2023-04-21T09:55:47.502Z,25.21
2023-04-21T10:00:49.347Z,25.22
2023-04-21T10:05:51.295Z,25.48
2023-04-21T10:10:53.183Z,25.71
2023-04-21T10:16:08.473Z,26.33
2023-04-21T10:21:17.249Z,25.90
2023-04-21T10:26:35.009Z,26.36
2023-04-21T10:31:50.756Z,26.69
2023-04-21T10:36:55.571Z,26.86
2023-04-21T10:41:58.357Z,25.31
2023-04-21T10:47:00.264Z,25.25
2023-04-21T10:52:02.072Z,25.36
2023-04-21T10:57:06.584Z,25.76
2023-04-21T11:02:12.107Z,25.51
2023-04-21T11:07:15.318Z,25.53
2023-04-21T11:12:18.206Z,25.70
2023-04-21T11:17:20.456Z,26.16
2023-04-21T11:22:22.983Z,26.06
2023-04-21T11:27:26.695Z,25.70
2023-04-21T11:32:28.560Z,25.36
2023-04-21T11:37:30.477Z,25.24
2023-04-21T11:42:32.396Z,24.87
2023-04-21T11:47:34.442Z,25.13
2023-04-21T11:52:36.704Z,25.57
2023-04-21T11:57:39.385Z,25.24
2023-04-21T12:02:41.459Z,24.62
2023-04-21T12:07:43.763Z,25.27
2023-04-21T12:12:45.688Z,25.17
2023-04-21T12:17:49.027Z,25.08
2023-04-21T12:22:51.086Z,24.96
2023-04-21T12:27:54.040Z,26.03
2023-04-21T12:32:56.034Z,26.30
2023-04-21T12:37:58.040Z,25.93
2023-04-21T12:43:00.094Z,25.64
2023-04-21T12:48:02.035Z,25.00
2023-04-21T12:53:04.121Z,25.34
2023-04-21T12:58:05.982Z,25.10
2023-04-21T13:03:08.012Z,25.07
2023-04-21T13:08:10.602Z,24.67
2023-04-21T13:13:12.649Z,25.04
2023-04-21T13:18:14.490Z,25.42
2023-04-21T13:23:16.383Z,25.89
2023-04-21T13:28:18.965Z,25.66
2023-04-21T13:33:21.430Z,25.28
2023-04-21T13:38:23.127Z,25.80
2023-04-21T13:43:24.963Z,25.77
2023-04-21T13:48:26.936Z,26.28
2023-04-21T13:53:28.814Z,26.21
2023-04-21T13:58:30.793Z,26.33
2023-04-21T14:03:32.860Z,26.51
2023-04-21T14:08:35.347Z,26.32
2023-04-21T14:13:42.112Z,25.12
2023-04-21T14:18:54.074Z,25.52
2023-04-21T14:23:55.922Z,25.25
2023-04-21T14:28:57.863Z,24.12
2023-04-21T14:33:59.770Z,24.75
2023-04-21T14:39:01.701Z,25.14
2023-04-21T14:44:03.645Z,25.15
2023-04-21T14:49:05.505Z,25.63
2023-04-21T14:54:07.517Z,25.28
2023-04-21T14:59:09.806Z,25.12
2023-04-21T15:04:11.882Z,25.80
2023-04-21T15:09:13.868Z,26.35
2023-04-21T15:14:15.650Z,26.34
2023-04-21T15:19:17.518Z,27.12
2023-04-21T15:24:19.369Z,27.52
2023-04-21T15:29:21.251Z,28.09
2023-04-21T15:34:24.080Z,28.26
2023-04-21T15:39:26.333Z,28.23
2023-04-21T15:44:28.268Z,29.14
2023-04-21T15:49:30.221Z,29.34
2023-04-21T15:54:32.246Z,29.59
2023-04-21T15:59:34.336Z,29.72
2023-04-21T16:04:36.645Z,29.82
2023-04-21T16:09:38.969Z,30.09
2023-04-21T16:14:54.546Z,30.29
2023-04-21T16:20:01.293Z,29.99
2023-04-21T16:25:03.449Z,30.08
2023-04-21T16:30:08.145Z,30.42
2023-04-21T16:35:10.519Z,30.31
2023-04-21T16:40:12.731Z,30.32
2023-04-21T16:45:14.848Z,30.55
2023-04-21T16:50:16.890Z,30.96
2023-04-21T16:55:19.319Z,31.27
2023-04-21T17:00:22.518Z,31.25
2023-04-21T17:05:24.521Z,31.44
2023-04-21T17:10:26.492Z,31.77
2023-04-21T17:15:28.760Z,31.96
2023-04-21T17:20:31.961Z,32.01
2023-04-21T17:25:33.942Z,32.48
2023-04-21T17:30:35.909Z,32.66
2023-04-21T17:35:46.029Z,32.88
2023-04-21T17:40:54.322Z,33.17
2023-04-21T17:45:56.151Z,33.21
2023-04-21T17:50:58.168Z,33.61
2023-04-21T17:56:00.102Z,33.67
2023-04-21T18:01:02.052Z,33.81
2023-04-21T18:06:04.272Z,34.03
2023-04-21T18:11:06.153Z,34.18
2023-04-21T18:16:08.042Z,34.20
2023-04-21T18:21:10.052Z,34.41
2023-04-21T18:26:11.957Z,34.65
2023-04-21T18:31:13.932Z,35.21
2023-04-21T18:36:15.839Z,34.95
2023-04-21T18:41:17.937Z,35.48
2023-04-21T18:46:19.909Z,35.33
2023-04-21T18:51:21.906Z,35.68
2023-04-21T18:56:24.063Z,35.89
2023-04-21T19:01:26.203Z,36.18
2023-04-21T19:06:28.141Z,36.25
2023-04-21T19:11:30.108Z,36.49
2023-04-21T19:16:31.993Z,36.68
2023-04-21T19:21:34.209Z,37.00
2023-04-21T19:26:36.168Z,37.23
2023-04-21T19:31:44.209Z,37.52
2023-04-21T19:36:46.046Z,37.66
2023-04-21T19:41:48.049Z,37.92
2023-04-21T19:46:49.968Z,38.19
2023-04-21T19:51:51.966Z,38.45
2023-04-21T19:56:53.884Z,38.54
2023-04-21T20:01:56.008Z,38.79
2023-04-21T20:06:57.997Z,39.30
2023-04-21T20:11:59.928Z,39.28
2023-04-21T20:17:01.880Z,39.23
2023-04-21T20:22:04.074Z,39.94
2023-04-21T20:27:08.617Z,39.64
2023-04-21T20:32:10.946Z,39.96
2023-04-21T20:37:12.909Z,40.25
2023-04-21T20:42:14.870Z,40.39
2023-04-21T20:47:16.983Z,40.48
2023-04-21T20:52:19.373Z,40.43
2023-04-21T20:57:21.292Z,40.42
2023-04-21T21:02:23.427Z,40.45
2023-04-21T21:07:25.633Z,40.42
2023-04-21T21:12:27.525Z,40.86
2023-04-21T21:17:29.599Z,41.24
2023-04-21T21:22:31.531Z,41.21
2023-04-21T21:27:33.462Z,41.33
2023-04-21T21:32:35.349Z,41.84
2023-04-21T21:37:37.618Z,41.97
2023-04-21T21:42:39.555Z,41.63
2023-04-21T21:47:44.853Z,41.90
2023-04-21T21:52:47.851Z,41.82
2023-04-21T21:57:49.865Z,42.21
2023-04-21T22:02:51.970Z,42.10
2023-04-21T22:07:53.928Z,42.12
2023-04-21T22:12:55.904Z,42.02
2023-04-21T22:17:57.978Z,41.99
2023-04-21T22:22:59.994Z,42.24
2023-04-21T22:28:01.994Z,42.57
2023-04-21T22:33:04.111Z,42.79
2023-04-21T22:38:06.245Z,43.23
2023-04-21T22:43:08.120Z,43.43
2023-04-21T22:48:10.199Z,43.50
2023-04-21T22:53:12.178Z,43.73
2023-04-21T22:58:15.571Z,43.63
2023-04-21T23:03:18.020Z,43.75
2023-04-21T23:08:20.152Z,43.91
2023-04-21T23:13:22.047Z,44.05
2023-04-21T23:18:24.010Z,44.24
2023-04-21T23:23:25.943Z,43.82
2023-04-21T23:28:27.902Z,43.97
2023-04-21T23:33:29.792Z,44.54
2023-04-21T23:38:31.677Z,44.47
2023-04-21T23:43:33.604Z,44.65
2023-04-21T23:48:35.497Z,44.87
2023-04-21T23:53:37.390Z,44.98
2023-04-21T23:58:39.320Z,45.54
